sensor_id;sensor_type;location;lat;lon;timestamp;temperature;humidity
54202;DHT22;40108;53.152;5.844;2022-11-15T00:01:41;7.20;93.10
54202;DHT22;40108;53.152;5.844;2022-11-15T00:04:06;7.20;93.10
54202;DHT22;40108;53.152;5.844;2022-11-15T00:06:32;7.20;93.10
54202;DHT22;40108;53.152;5.844;2022-11-15T00:08:59;7.30;93.10
54202;DHT22;40108;53.152;5.844;2022-11-15T00:11:25;7.30;93.20
54202;DHT22;40108;53.152;5.844;2022-11-15T00:13:50;7.30;93.20
54202;DHT22;40108;53.152;5.844;2022-11-15T00:16:16;7.30;93.20
54202;DHT22;40108;53.152;5.844;2022-11-15T00:18:42;7.30;93.20
54202;DHT22;40108;53.152;5.844;2022-11-15T00:21:10;7.30;93.20
54202;DHT22;40108;53.152;5.844;2022-11-15T00:23:36;7.20;93.10
54202;DHT22;40108;53.152;5.844;2022-11-15T00:26:03;7.30;93.10
54202;DHT22;40108;53.152;5.844;2022-11-15T00:28:29;7.30;93.10
54202;DHT22;40108;53.152;5.844;2022-11-15T00:31:00;7.30;93.00
54202;DHT22;40108;53.152;5.844;2022-11-15T00:33:26;7.30;93.00
54202;DHT22;40108;53.152;5.844;2022-11-15T00:35:52;7.30;93.00
54202;DHT22;40108;53.152;5.844;2022-11-15T00:38:18;7.30;93.00
54202;DHT22;40108;53.152;5.844;2022-11-15T00:40:43;7.30;92.60
54202;DHT22;40108;53.152;5.844;2022-11-15T00:43:09;7.20;92.60
54202;DHT22;40108;53.152;5.844;2022-11-15T00:45:35;7.20;92.60
54202;DHT22;40108;53.152;5.844;2022-11-15T00:48:00;7.20;92.60
54202;DHT22;40108;53.152;5.844;2022-11-15T00:50:26;7.20;92.60
54202;DHT22;40108;53.152;5.844;2022-11-15T00:52:52;7.20;92.70
54202;DHT22;40108;53.152;5.844;2022-11-15T00:55:18;7.20;92.60
54202;DHT22;40108;53.152;5.844;2022-11-15T00:57:44;7.20;92.70
54202;DHT22;40108;53.152;5.844;2022-11-15T01:00:11;7.20;92.80
54202;DHT22;40108;53.152;5.844;2022-11-15T01:02:38;7.20;92.70
54202;DHT22;40108;53.152;5.844;2022-11-15T01:05:04;7.20;92.60
54202;DHT22;40108;53.152;5.844;2022-11-15T01:07:29;7.20;92.70
54202;DHT22;40108;53.152;5.844;2022-11-15T01:09:55;7.20;92.70
54202;DHT22;40108;53.152;5.844;2022-11-15T01:12:21;7.20;92.80
54202;DHT22;40108;53.152;5.844;2022-11-15T01:14:46;7.20;92.80
54202;DHT22;40108;53.152;5.844;2022-11-15T01:17:12;7.20;92.90
54202;DHT22;40108;53.152;5.844;2022-11-15T01:19:38;7.20;93.00
54202;DHT22;40108;53.152;5.844;2022-11-15T01:22:03;7.20;92.80
54202;DHT22;40108;53.152;5.844;2022-11-15T01:24:29;7.00;92.50
54202;DHT22;40108;53.152;5.844;2022-11-15T01:26:55;7.00;92.40
54202;DHT22;40108;53.152;5.844;2022-11-15T01:29:20;6.90;92.50
54202;DHT22;40108;53.152;5.844;2022-11-15T01:31:46;6.90;92.70
54202;DHT22;40108;53.152;5.844;2022-11-15T01:34:12;6.90;92.80
54202;DHT22;40108;53.152;5.844;2022-11-15T01:36:37;6.80;92.90
54202;DHT22;40108;53.152;5.844;2022-11-15T01:39:03;6.80;93.10
54202;DHT22;40108;53.152;5.844;2022-11-15T01:41:31;6.80;93.20
54202;DHT22;40108;53.152;5.844;2022-11-15T01:47:04;6.70;93.60
54202;DHT22;40108;53.152;5.844;2022-11-15T01:49:34;6.70;93.40
54202;DHT22;40108;53.152;5.844;2022-11-15T01:52:02;6.60;93.40
54202;DHT22;40108;53.152;5.844;2022-11-15T01:54:29;6.60;93.40
54202;DHT22;40108;53.152;5.844;2022-11-15T01:57:04;6.50;93.60
54202;DHT22;40108;53.152;5.844;2022-11-15T01:59:31;6.50;93.70
54202;DHT22;40108;53.152;5.844;2022-11-15T02:01:57;6.50;93.80
54202;DHT22;40108;53.152;5.844;2022-11-15T02:04:26;6.50;93.90
54202;DHT22;40108;53.152;5.844;2022-11-15T02:06:53;6.40;94.00
54202;DHT22;40108;53.152;5.844;2022-11-15T02:09:19;6.30;94.20
54202;DHT22;40108;53.152;5.844;2022-11-15T02:11:46;6.30;94.20
54202;DHT22;40108;53.152;5.844;2022-11-15T02:14:14;6.30;94.30
54202;DHT22;40108;53.152;5.844;2022-11-15T02:28:06;6.20;94.60
54202;DHT22;40108;53.152;5.844;2022-11-15T02:31:28;6.20;94.70
54202;DHT22;40108;53.152;5.844;2022-11-15T02:39:50;6.20;95.00
54202;DHT22;40108;53.152;5.844;2022-11-15T02:42:25;6.20;95.10
54202;DHT22;40108;53.152;5.844;2022-11-15T02:45:16;6.20;95.10
54202;DHT22;40108;53.152;5.844;2022-11-15T02:47:45;6.20;95.10
54202;DHT22;40108;53.152;5.844;2022-11-15T02:50:16;6.20;95.20
54202;DHT22;40108;53.152;5.844;2022-11-15T02:52:46;6.20;95.20
54202;DHT22;40108;53.152;5.844;2022-11-15T03:06:38;6.30;95.80
54202;DHT22;40108;53.152;5.844;2022-11-15T03:09:23;6.40;95.80
54202;DHT22;40108;53.152;5.844;2022-11-15T03:11:58;6.30;95.90
54202;DHT22;40108;53.152;5.844;2022-11-15T03:14:31;6.40;96.10
54202;DHT22;40108;53.152;5.844;2022-11-15T03:17:24;6.30;96.10
54202;DHT22;40108;53.152;5.844;2022-11-15T03:19:54;6.40;96.30
54202;DHT22;40108;53.152;5.844;2022-11-15T03:22:23;6.30;96.50
54202;DHT22;40108;53.152;5.844;2022-11-15T03:24:56;6.40;96.50
54202;DHT22;40108;53.152;5.844;2022-11-15T03:27:25;6.40;96.60
54202;DHT22;40108;53.152;5.844;2022-11-15T03:29:59;6.40;96.70
54202;DHT22;40108;53.152;5.844;2022-11-15T03:32:28;6.40;96.70
54202;DHT22;40108;53.152;5.844;2022-11-15T03:34:58;6.40;96.80
54202;DHT22;40108;53.152;5.844;2022-11-15T03:37:54;6.40;96.80
54202;DHT22;40108;53.152;5.844;2022-11-15T03:40:38;6.50;96.90
54202;DHT22;40108;53.152;5.844;2022-11-15T03:43:36;6.50;97.00
54202;DHT22;40108;53.152;5.844;2022-11-15T03:46:14;6.50;97.00
54202;DHT22;40108;53.152;5.844;2022-11-15T03:48:51;6.60;97.20
54202;DHT22;40108;53.152;5.844;2022-11-15T03:51:18;6.60;97.20
54202;DHT22;40108;53.152;5.844;2022-11-15T03:53:45;6.60;97.20
54202;DHT22;40108;53.152;5.844;2022-11-15T03:56:11;6.60;97.30
54202;DHT22;40108;53.152;5.844;2022-11-15T03:58:37;6.70;97.40
54202;DHT22;40108;53.152;5.844;2022-11-15T04:01:02;6.70;97.40
54202;DHT22;40108;53.152;5.844;2022-11-15T04:03:28;6.70;97.50
54202;DHT22;40108;53.152;5.844;2022-11-15T04:05:54;6.70;97.50
54202;DHT22;40108;53.152;5.844;2022-11-15T04:08:19;6.70;97.50
54202;DHT22;40108;53.152;5.844;2022-11-15T04:10:45;6.80;97.60
54202;DHT22;40108;53.152;5.844;2022-11-15T04:13:14;6.70;97.60
54202;DHT22;40108;53.152;5.844;2022-11-15T04:15:39;6.80;97.60
54202;DHT22;40108;53.152;5.844;2022-11-15T04:18:05;6.90;97.60
54202;DHT22;40108;53.152;5.844;2022-11-15T04:20:31;6.80;97.60
54202;DHT22;40108;53.152;5.844;2022-11-15T04:23:21;6.90;97.70
54202;DHT22;40108;53.152;5.844;2022-11-15T04:26:12;7.00;97.70
54202;DHT22;40108;53.152;5.844;2022-11-15T04:28:38;7.00;97.70
54202;DHT22;40108;53.152;5.844;2022-11-15T04:31:23;7.00;97.70
54202;DHT22;40108;53.152;5.844;2022-11-15T04:33:48;7.10;97.80
54202;DHT22;40108;53.152;5.844;2022-11-15T04:36:14;7.10;97.80
54202;DHT22;40108;53.152;5.844;2022-11-15T04:38:58;7.20;97.80
54202;DHT22;40108;53.152;5.844;2022-11-15T04:41:24;7.20;97.80
54202;DHT22;40108;53.152;5.844;2022-11-15T04:43:50;7.20;97.80
54202;DHT22;40108;53.152;5.844;2022-11-15T04:46:16;7.20;97.80
54202;DHT22;40108;53.152;5.844;2022-11-15T04:48:41;7.20;97.80
54202;DHT22;40108;53.152;5.844;2022-11-15T04:51:07;7.20;97.80
54202;DHT22;40108;53.152;5.844;2022-11-15T04:53:33;7.30;97.80
54202;DHT22;40108;53.152;5.844;2022-11-15T04:55:58;7.40;97.80
54202;DHT22;40108;53.152;5.844;2022-11-15T04:58:24;7.40;97.90
54202;DHT22;40108;53.152;5.844;2022-11-15T05:00:50;7.40;97.90
54202;DHT22;40108;53.152;5.844;2022-11-15T05:03:15;7.40;97.90
54202;DHT22;40108;53.152;5.844;2022-11-15T05:06:01;7.50;98.00
54202;DHT22;40108;53.152;5.844;2022-11-15T05:08:26;7.60;98.00
54202;DHT22;40108;53.152;5.844;2022-11-15T05:10:52;7.60;98.10
54202;DHT22;40108;53.152;5.844;2022-11-15T05:13:18;7.60;98.10
54202;DHT22;40108;53.152;5.844;2022-11-15T05:15:43;7.70;98.10
54202;DHT22;40108;53.152;5.844;2022-11-15T05:18:09;7.70;98.10
54202;DHT22;40108;53.152;5.844;2022-11-15T05:20:35;7.70;98.20
54202;DHT22;40108;53.152;5.844;2022-11-15T05:23:01;7.80;98.20
54202;DHT22;40108;53.152;5.844;2022-11-15T05:25:27;7.90;98.20
54202;DHT22;40108;53.152;5.844;2022-11-15T05:27:53;7.90;98.30
54202;DHT22;40108;53.152;5.844;2022-11-15T05:30:19;8.00;98.30
54202;DHT22;40108;53.152;5.844;2022-11-15T05:32:44;8.10;98.30
54202;DHT22;40108;53.152;5.844;2022-11-15T05:35:35;8.10;98.40
54202;DHT22;40108;53.152;5.844;2022-11-15T05:37:59;8.20;98.40
54202;DHT22;40108;53.152;5.844;2022-11-15T05:40:26;8.20;98.40
54202;DHT22;40108;53.152;5.844;2022-11-15T05:42:52;8.20;98.40
54202;DHT22;40108;53.152;5.844;2022-11-15T05:45:18;8.30;98.50
54202;DHT22;40108;53.152;5.844;2022-11-15T05:47:45;8.30;98.50
54202;DHT22;40108;53.152;5.844;2022-11-15T05:50:12;8.40;98.50
54202;DHT22;40108;53.152;5.844;2022-11-15T05:52:40;8.50;98.50
54202;DHT22;40108;53.152;5.844;2022-11-15T05:55:07;8.50;98.60
54202;DHT22;40108;53.152;5.844;2022-11-15T05:57:34;8.50;98.60
54202;DHT22;40108;53.152;5.844;2022-11-15T06:00:00;8.60;98.60
54202;DHT22;40108;53.152;5.844;2022-11-15T06:02:25;8.60;98.60
54202;DHT22;40108;53.152;5.844;2022-11-15T06:04:51;8.70;98.70
54202;DHT22;40108;53.152;5.844;2022-11-15T06:07:17;8.70;98.70
54202;DHT22;40108;53.152;5.844;2022-11-15T06:09:42;8.70;98.70
54202;DHT22;40108;53.152;5.844;2022-11-15T06:12:08;8.70;98.70
54202;DHT22;40108;53.152;5.844;2022-11-15T06:14:34;8.70;98.70
54202;DHT22;40108;53.152;5.844;2022-11-15T06:16:59;8.70;98.70
54202;DHT22;40108;53.152;5.844;2022-11-15T06:19:25;8.80;98.80
54202;DHT22;40108;53.152;5.844;2022-11-15T06:21:51;8.80;98.80
54202;DHT22;40108;53.152;5.844;2022-11-15T06:24:16;8.90;98.80
54202;DHT22;40108;53.152;5.844;2022-11-15T06:26:42;8.90;98.80
54202;DHT22;40108;53.152;5.844;2022-11-15T06:29:07;9.00;98.80
54202;DHT22;40108;53.152;5.844;2022-11-15T06:31:34;9.00;98.80
54202;DHT22;40108;53.152;5.844;2022-11-15T06:34:00;9.00;98.80
54202;DHT22;40108;53.152;5.844;2022-11-15T06:36:26;9.10;98.80
54202;DHT22;40108;53.152;5.844;2022-11-15T06:38:51;9.10;98.80
54202;DHT22;40108;53.152;5.844;2022-11-15T06:41:17;9.10;98.80
54202;DHT22;40108;53.152;5.844;2022-11-15T06:43:43;9.20;98.90
54202;DHT22;40108;53.152;5.844;2022-11-15T06:46:09;9.20;98.90
54202;DHT22;40108;53.152;5.844;2022-11-15T06:48:35;9.20;98.90
54202;DHT22;40108;53.152;5.844;2022-11-15T06:51:03;9.20;98.80
54202;DHT22;40108;53.152;5.844;2022-11-15T06:53:29;9.20;98.80
54202;DHT22;40108;53.152;5.844;2022-11-15T06:56:05;9.20;98.80
54202;DHT22;40108;53.152;5.844;2022-11-15T06:58:32;9.30;98.90
54202;DHT22;40108;53.152;5.844;2022-11-15T07:01:06;9.30;98.90
54202;DHT22;40108;53.152;5.844;2022-11-15T07:03:35;9.30;98.90
54202;DHT22;40108;53.152;5.844;2022-11-15T07:06:01;9.40;98.90
54202;DHT22;40108;53.152;5.844;2022-11-15T07:08:28;9.40;98.90
54202;DHT22;40108;53.152;5.844;2022-11-15T07:10:57;9.40;98.90
54202;DHT22;40108;53.152;5.844;2022-11-15T07:13:28;9.50;98.90
54202;DHT22;40108;53.152;5.844;2022-11-15T07:15:54;9.50;98.90
54202;DHT22;40108;53.152;5.844;2022-11-15T07:18:20;9.60;98.90
54202;DHT22;40108;53.152;5.844;2022-11-15T07:20:46;9.60;98.90
54202;DHT22;40108;53.152;5.844;2022-11-15T07:23:11;9.60;98.90
54202;DHT22;40108;53.152;5.844;2022-11-15T07:25:37;9.60;98.90
54202;DHT22;40108;53.152;5.844;2022-11-15T07:28:03;9.70;98.90
54202;DHT22;40108;53.152;5.844;2022-11-15T07:30:29;9.60;98.80
54202;DHT22;40108;53.152;5.844;2022-11-15T07:32:59;9.70;98.80
54202;DHT22;40108;53.152;5.844;2022-11-15T07:35:26;9.70;98.90
54202;DHT22;40108;53.152;5.844;2022-11-15T07:38:01;9.70;98.80
54202;DHT22;40108;53.152;5.844;2022-11-15T07:40:30;9.70;98.80
54202;DHT22;40108;53.152;5.844;2022-11-15T07:43:03;9.80;98.80
54202;DHT22;40108;53.152;5.844;2022-11-15T07:45:30;9.80;98.80
54202;DHT22;40108;53.152;5.844;2022-11-15T07:47:56;9.80;98.80
54202;DHT22;40108;53.152;5.844;2022-11-15T07:50:25;9.90;98.80
54202;DHT22;40108;53.152;5.844;2022-11-15T07:52:59;9.80;98.80
54202;DHT22;40108;53.152;5.844;2022-11-15T07:55:26;9.90;98.70
54202;DHT22;40108;53.152;5.844;2022-11-15T07:58:06;9.90;98.70
54202;DHT22;40108;53.152;5.844;2022-11-15T08:00:33;9.90;98.70
54202;DHT22;40108;53.152;5.844;2022-11-15T08:03:07;10.00;98.70
54202;DHT22;40108;53.152;5.844;2022-11-15T08:05:35;10.00;98.70
54202;DHT22;40108;53.152;5.844;2022-11-15T08:08:01;10.00;98.60
54202;DHT22;40108;53.152;5.844;2022-11-15T08:10:27;10.10;98.60
54202;DHT22;40108;53.152;5.844;2022-11-15T08:12:57;10.10;98.60
54202;DHT22;40108;53.152;5.844;2022-11-15T08:15:23;10.10;98.60
54202;DHT22;40108;53.152;5.844;2022-11-15T08:18:00;10.20;98.60
54202;DHT22;40108;53.152;5.844;2022-11-15T08:20:27;10.10;98.50
54202;DHT22;40108;53.152;5.844;2022-11-15T08:23:01;10.20;98.50
54202;DHT22;40108;53.152;5.844;2022-11-15T08:25:29;10.20;98.50
54202;DHT22;40108;53.152;5.844;2022-11-15T08:28:01;10.20;98.40
54202;DHT22;40108;53.152;5.844;2022-11-15T08:30:27;10.20;98.40
54202;DHT22;40108;53.152;5.844;2022-11-15T08:32:55;10.30;98.40
54202;DHT22;40108;53.152;5.844;2022-11-15T08:35:21;10.30;98.40
54202;DHT22;40108;53.152;5.844;2022-11-15T08:37:47;10.40;98.40
54202;DHT22;40108;53.152;5.844;2022-11-15T08:40:13;10.50;98.40
54202;DHT22;40108;53.152;5.844;2022-11-15T08:42:39;10.60;98.30
54202;DHT22;40108;53.152;5.844;2022-11-15T08:45:05;10.60;98.20
54202;DHT22;40108;53.152;5.844;2022-11-15T08:47:31;10.60;98.20
54202;DHT22;40108;53.152;5.844;2022-11-15T08:49:57;10.60;98.10
54202;DHT22;40108;53.152;5.844;2022-11-15T08:52:23;10.60;98.00
54202;DHT22;40108;53.152;5.844;2022-11-15T08:54:49;10.60;98.00
54202;DHT22;40108;53.152;5.844;2022-11-15T08:57:15;10.60;97.90
54202;DHT22;40108;53.152;5.844;2022-11-15T08:59:40;10.60;97.90
54202;DHT22;40108;53.152;5.844;2022-11-15T09:02:06;10.60;97.80
54202;DHT22;40108;53.152;5.844;2022-11-15T09:04:32;10.60;97.80
54202;DHT22;40108;53.152;5.844;2022-11-15T09:06:58;10.60;97.80
54202;DHT22;40108;53.152;5.844;2022-11-15T09:09:23;10.60;97.70
54202;DHT22;40108;53.152;5.844;2022-11-15T09:11:49;10.60;97.70
54202;DHT22;40108;53.152;5.844;2022-11-15T09:14:16;10.70;97.60
54202;DHT22;40108;53.152;5.844;2022-11-15T09:16:41;10.70;97.50
54202;DHT22;40108;53.152;5.844;2022-11-15T09:19:07;10.70;97.40
54202;DHT22;40108;53.152;5.844;2022-11-15T09:21:33;10.70;97.30
54202;DHT22;40108;53.152;5.844;2022-11-15T09:23:59;10.70;97.20
54202;DHT22;40108;53.152;5.844;2022-11-15T09:26:25;10.80;97.20
54202;DHT22;40108;53.152;5.844;2022-11-15T09:28:50;10.80;97.00
54202;DHT22;40108;53.152;5.844;2022-11-15T09:31:16;10.80;97.00
54202;DHT22;40108;53.152;5.844;2022-11-15T09:33:45;10.80;96.90
54202;DHT22;40108;53.152;5.844;2022-11-15T09:36:11;10.90;97.00
54202;DHT22;40108;53.152;5.844;2022-11-15T09:38:37;11.00;96.80
54202;DHT22;40108;53.152;5.844;2022-11-15T09:49:17;10.80;96.40
54202;DHT22;40108;53.152;5.844;2022-11-15T09:51:50;10.80;96.40
54202;DHT22;40108;53.152;5.844;2022-11-15T09:54:34;10.80;96.50
54202;DHT22;40108;53.152;5.844;2022-11-15T09:57:14;10.90;96.60
54202;DHT22;40108;53.152;5.844;2022-11-15T10:05:01;10.90;96.80
54202;DHT22;40108;53.152;5.844;2022-11-15T10:07:34;10.90;96.80
54202;DHT22;40108;53.152;5.844;2022-11-15T10:12:51;11.00;96.80
54202;DHT22;40108;53.152;5.844;2022-11-15T10:15:18;11.00;96.70
54202;DHT22;40108;53.152;5.844;2022-11-15T10:20:30;11.10;96.70
54202;DHT22;40108;53.152;5.844;2022-11-15T10:22:59;11.20;96.60
54202;DHT22;40108;53.152;5.844;2022-11-15T10:25:28;11.20;96.50
54202;DHT22;40108;53.152;5.844;2022-11-15T10:27:56;11.30;96.50
54202;DHT22;40108;53.152;5.844;2022-11-15T10:30:29;11.30;96.30
54202;DHT22;40108;53.152;5.844;2022-11-15T10:32:55;11.40;96.20
54202;DHT22;40108;53.152;5.844;2022-11-15T10:35:29;11.40;96.10
54202;DHT22;40108;53.152;5.844;2022-11-15T10:38:09;11.50;96.10
54202;DHT22;40108;53.152;5.844;2022-11-15T10:40:36;11.50;95.90
54202;DHT22;40108;53.152;5.844;2022-11-15T10:43:14;11.50;95.80
54202;DHT22;40108;53.152;5.844;2022-11-15T10:45:40;11.50;95.70
54202;DHT22;40108;53.152;5.844;2022-11-15T10:50:40;11.50;95.50
54202;DHT22;40108;53.152;5.844;2022-11-15T10:53:30;11.50;95.50
54202;DHT22;40108;53.152;5.844;2022-11-15T10:56:00;11.50;95.30
54202;DHT22;40108;53.152;5.844;2022-11-15T10:58:44;11.50;95.20
54202;DHT22;40108;53.152;5.844;2022-11-15T11:01:45;11.60;95.10
54202;DHT22;40108;53.152;5.844;2022-11-15T11:04:11;11.60;95.00
54202;DHT22;40108;53.152;5.844;2022-11-15T11:07:00;11.60;95.00
54202;DHT22;40108;53.152;5.844;2022-11-15T11:09:32;11.60;95.00
54202;DHT22;40108;53.152;5.844;2022-11-15T11:11:59;11.60;94.80
54202;DHT22;40108;53.152;5.844;2022-11-15T11:14:30;11.60;94.80
54202;DHT22;40108;53.152;5.844;2022-11-15T11:17:00;11.60;94.50
54202;DHT22;40108;53.152;5.844;2022-11-15T11:19:46;11.70;94.50
54202;DHT22;40108;53.152;5.844;2022-11-15T11:25:19;11.60;94.00
54202;DHT22;40108;53.152;5.844;2022-11-15T11:33:37;11.70;93.50
54202;DHT22;40108;53.152;5.844;2022-11-15T11:41:46;11.70;92.70
54202;DHT22;40108;53.152;5.844;2022-11-15T11:44:47;11.70;92.20
54202;DHT22;40108;53.152;5.844;2022-11-15T11:47:31;11.70;92.30
54202;DHT22;40108;53.152;5.844;2022-11-15T11:50:19;11.70;92.00
54202;DHT22;40108;53.152;5.844;2022-11-15T11:55:22;11.70;92.10
54202;DHT22;40108;53.152;5.844;2022-11-15T12:00:45;11.90;92.00
54202;DHT22;40108;53.152;5.844;2022-11-15T12:03:34;12.00;91.90
54202;DHT22;40108;53.152;5.844;2022-11-15T12:09:04;12.20;91.10
54202;DHT22;40108;53.152;5.844;2022-11-15T12:11:37;12.30;90.50
54202;DHT22;40108;53.152;5.844;2022-11-15T12:14:16;12.40;90.20
54202;DHT22;40108;53.152;5.844;2022-11-15T12:16:45;12.30;90.50
54202;DHT22;40108;53.152;5.844;2022-11-15T12:19:10;12.30;90.30
54202;DHT22;40108;53.152;5.844;2022-11-15T12:21:56;12.20;90.20
54202;DHT22;40108;53.152;5.844;2022-11-15T12:24:33;12.10;90.30
54202;DHT22;40108;53.152;5.844;2022-11-15T12:29:47;12.10;91.10
54202;DHT22;40108;53.152;5.844;2022-11-15T12:32:25;12.20;90.40
54202;DHT22;40108;53.152;5.844;2022-11-15T12:34:52;12.30;90.10
54202;DHT22;40108;53.152;5.844;2022-11-15T12:40:29;12.50;89.40
54202;DHT22;40108;53.152;5.844;2022-11-15T12:45:41;12.90;87.70
54202;DHT22;40108;53.152;5.844;2022-11-15T13:07:02;12.40;83.50
54202;DHT22;40108;53.152;5.844;2022-11-15T13:12:08;12.30;84.10
54202;DHT22;40108;53.152;5.844;2022-11-15T13:19:46;12.20;84.20
54202;DHT22;40108;53.152;5.844;2022-11-15T13:22:12;12.20;84.30
54202;DHT22;40108;53.152;5.844;2022-11-15T13:24:56;12.10;84.40
54202;DHT22;40108;53.152;5.844;2022-11-15T13:27:22;12.10;84.60
54202;DHT22;40108;53.152;5.844;2022-11-15T13:29:48;12.10;84.80
54202;DHT22;40108;53.152;5.844;2022-11-15T13:32:15;12.10;85.00
54202;DHT22;40108;53.152;5.844;2022-11-15T13:34:46;12.00;85.20
54202;DHT22;40108;53.152;5.844;2022-11-15T13:39:48;12.00;85.40
54202;DHT22;40108;53.152;5.844;2022-11-15T13:42:19;12.10;85.40
54202;DHT22;40108;53.152;5.844;2022-11-15T13:45:03;12.00;85.50
54202;DHT22;40108;53.152;5.844;2022-11-15T13:47:29;12.00;85.60
54202;DHT22;40108;53.152;5.844;2022-11-15T13:49:59;12.00;86.10
54202;DHT22;40108;53.152;5.844;2022-11-15T13:52:30;11.90;86.60
54202;DHT22;40108;53.152;5.844;2022-11-15T13:55:09;11.90;86.80
54202;DHT22;40108;53.152;5.844;2022-11-15T13:57:39;11.80;86.50
54202;DHT22;40108;53.152;5.844;2022-11-15T14:00:29;11.80;86.80
54202;DHT22;40108;53.152;5.844;2022-11-15T14:02:56;11.80;87.30
54202;DHT22;40108;53.152;5.844;2022-11-15T14:05:24;11.70;87.50
54202;DHT22;40108;53.152;5.844;2022-11-15T14:08:02;11.70;87.50
54202;DHT22;40108;53.152;5.844;2022-11-15T14:10:31;11.60;87.60
54202;DHT22;40108;53.152;5.844;2022-11-15T14:12:58;11.60;87.50
54202;DHT22;40108;53.152;5.844;2022-11-15T14:15:33;11.60;87.20
54202;DHT22;40108;53.152;5.844;2022-11-15T14:17:59;11.50;87.30
54202;DHT22;40108;53.152;5.844;2022-11-15T14:22:55;11.40;87.20
54202;DHT22;40108;53.152;5.844;2022-11-15T14:25:51;11.40;87.40
54202;DHT22;40108;53.152;5.844;2022-11-15T14:30:50;11.20;88.00
54202;DHT22;40108;53.152;5.844;2022-11-15T14:35:51;11.20;88.40
54202;DHT22;40108;53.152;5.844;2022-11-15T14:38:18;11.10;88.40
54202;DHT22;40108;53.152;5.844;2022-11-15T14:56:15;10.80;87.20
54202;DHT22;40108;53.152;5.844;2022-11-15T14:58:42;10.70;87.10
54202;DHT22;40108;53.152;5.844;2022-11-15T15:01:19;10.70;87.10
54202;DHT22;40108;53.152;5.844;2022-11-15T15:03:45;10.70;87.20
54202;DHT22;40108;53.152;5.844;2022-11-15T15:06:11;10.70;87.40
54202;DHT22;40108;53.152;5.844;2022-11-15T15:08:39;10.60;87.40
54202;DHT22;40108;53.152;5.844;2022-11-15T15:11:15;10.60;87.40
54202;DHT22;40108;53.152;5.844;2022-11-15T15:13:57;10.60;87.60
54202;DHT22;40108;53.152;5.844;2022-11-15T15:16:25;10.60;87.70
54202;DHT22;40108;53.152;5.844;2022-11-15T15:18:52;10.60;87.90
54202;DHT22;40108;53.152;5.844;2022-11-15T15:21:26;10.50;88.00
54202;DHT22;40108;53.152;5.844;2022-11-15T15:23:56;10.50;88.10
54202;DHT22;40108;53.152;5.844;2022-11-15T15:26:32;10.40;88.20
54202;DHT22;40108;53.152;5.844;2022-11-15T15:29:12;10.40;88.20
54202;DHT22;40108;53.152;5.844;2022-11-15T15:31:40;10.30;88.10
54202;DHT22;40108;53.152;5.844;2022-11-15T15:34:06;10.30;88.00
54202;DHT22;40108;53.152;5.844;2022-11-15T15:36:32;10.20;87.80
54202;DHT22;40108;53.152;5.844;2022-11-15T15:38:57;10.20;87.80
54202;DHT22;40108;53.152;5.844;2022-11-15T15:41:29;10.20;87.60
54202;DHT22;40108;53.152;5.844;2022-11-15T15:43:55;10.20;87.40
54202;DHT22;40108;53.152;5.844;2022-11-15T15:46:21;10.20;87.50
54202;DHT22;40108;53.152;5.844;2022-11-15T15:48:47;10.20;87.20
54202;DHT22;40108;53.152;5.844;2022-11-15T15:51:13;10.20;87.10
54202;DHT22;40108;53.152;5.844;2022-11-15T15:53:39;10.20;87.10
54202;DHT22;40108;53.152;5.844;2022-11-15T15:56:05;10.20;87.00
54202;DHT22;40108;53.152;5.844;2022-11-15T15:58:34;10.20;87.00
54202;DHT22;40108;53.152;5.844;2022-11-15T16:00:59;10.20;87.00
54202;DHT22;40108;53.152;5.844;2022-11-15T16:03:25;10.20;87.10
54202;DHT22;40108;53.152;5.844;2022-11-15T16:05:53;10.20;87.10
54202;DHT22;40108;53.152;5.844;2022-11-15T16:08:20;10.20;87.00
54202;DHT22;40108;53.152;5.844;2022-11-15T16:10:47;10.20;87.10
54202;DHT22;40108;53.152;5.844;2022-11-15T16:13:13;10.20;87.10
54202;DHT22;40108;53.152;5.844;2022-11-15T16:15:38;10.20;87.20
54202;DHT22;40108;53.152;5.844;2022-11-15T16:18:05;10.30;87.20
54202;DHT22;40108;53.152;5.844;2022-11-15T16:23:14;10.40;87.20
54202;DHT22;40108;53.152;5.844;2022-11-15T16:25:48;10.40;86.90
54202;DHT22;40108;53.152;5.844;2022-11-15T16:28:20;10.50;86.80
54202;DHT22;40108;53.152;5.844;2022-11-15T16:30:46;10.50;86.70
54202;DHT22;40108;53.152;5.844;2022-11-15T16:33:12;10.60;86.70
54202;DHT22;40108;53.152;5.844;2022-11-15T16:35:48;10.60;86.60
54202;DHT22;40108;53.152;5.844;2022-11-15T16:38:18;10.60;86.40
54202;DHT22;40108;53.152;5.844;2022-11-15T16:40:43;10.70;86.30
54202;DHT22;40108;53.152;5.844;2022-11-15T16:43:12;10.70;86.00
54202;DHT22;40108;53.152;5.844;2022-11-15T16:45:38;10.70;85.90
54202;DHT22;40108;53.152;5.844;2022-11-15T16:48:03;10.80;85.90
54202;DHT22;40108;53.152;5.844;2022-11-15T16:50:34;10.80;85.70
54202;DHT22;40108;53.152;5.844;2022-11-15T16:53:06;10.80;85.60
54202;DHT22;40108;53.152;5.844;2022-11-15T16:55:31;10.90;85.10
54202;DHT22;40108;53.152;5.844;2022-11-15T16:57:57;10.90;84.90
54202;DHT22;40108;53.152;5.844;2022-11-15T17:00:24;10.90;84.80
54202;DHT22;40108;53.152;5.844;2022-11-15T17:02:50;10.90;84.70
54202;DHT22;40108;53.152;5.844;2022-11-15T17:05:18;11.00;84.60
54202;DHT22;40108;53.152;5.844;2022-11-15T17:07:47;10.90;84.30
54202;DHT22;40108;53.152;5.844;2022-11-15T17:10:20;11.00;84.10
54202;DHT22;40108;53.152;5.844;2022-11-15T17:12:46;11.00;83.90
54202;DHT22;40108;53.152;5.844;2022-11-15T17:15:14;11.10;83.60
54202;DHT22;40108;53.152;5.844;2022-11-15T17:17:42;11.10;83.40
54202;DHT22;40108;53.152;5.844;2022-11-15T17:20:16;11.10;83.00
54202;DHT22;40108;53.152;5.844;2022-11-15T17:22:42;11.10;82.80
54202;DHT22;40108;53.152;5.844;2022-11-15T17:25:09;11.10;82.70
54202;DHT22;40108;53.152;5.844;2022-11-15T17:27:35;11.10;82.50
54202;DHT22;40108;53.152;5.844;2022-11-15T17:30:00;11.10;82.30
54202;DHT22;40108;53.152;5.844;2022-11-15T17:32:28;11.20;81.90
54202;DHT22;40108;53.152;5.844;2022-11-15T17:35:02;11.20;81.70
54202;DHT22;40108;53.152;5.844;2022-11-15T17:37:27;11.20;81.60
54202;DHT22;40108;53.152;5.844;2022-11-15T17:39:53;11.20;81.10
54202;DHT22;40108;53.152;5.844;2022-11-15T17:42:19;11.20;80.60
54202;DHT22;40108;53.152;5.844;2022-11-15T17:44:45;11.20;80.70
54202;DHT22;40108;53.152;5.844;2022-11-15T17:47:10;11.20;80.50
54202;DHT22;40108;53.152;5.844;2022-11-15T17:49:36;11.30;79.90
54202;DHT22;40108;53.152;5.844;2022-11-15T17:52:05;11.30;80.10
54202;DHT22;40108;53.152;5.844;2022-11-15T17:54:31;11.30;79.90
54202;DHT22;40108;53.152;5.844;2022-11-15T17:56:57;11.30;79.80
54202;DHT22;40108;53.152;5.844;2022-11-15T17:59:32;11.30;79.40
54202;DHT22;40108;53.152;5.844;2022-11-15T18:01:58;11.30;79.20
54202;DHT22;40108;53.152;5.844;2022-11-15T18:04:23;11.30;78.80
54202;DHT22;40108;53.152;5.844;2022-11-15T18:06:53;11.40;78.70
54202;DHT22;40108;53.152;5.844;2022-11-15T18:09:20;11.40;78.40
54202;DHT22;40108;53.152;5.844;2022-11-15T18:11:46;11.40;77.80